Portada
METAR-TAF:

METAR-TAF

Aeropuertos :

Aeropuerto de Almería

Almería, España

latitud: 36-51N, longitud: 002-23W, altitud: 15 m

Observación

El informe se hizo hace 32 minutos, a las 14:00 UTC
Viento 6 kt del sur, variando entre sureste y suroeste
Temperatura 16°C
Humedad 55%
Presión 1030 hPa
Visibilidad 10 km o más
sin nubes por debajo de 1500 m y sin presencia de cumulonimbus.

METAR: LEAM 031400Z 18006KT 140V220 CAVOK 16/07 Q1030

Hora: 15:32 (14:32 UTC)

Pronóstico

El informe se hizo hace 3 horas y 32 minutos, a las 11:00 UTC
Pronóstico válido del 03 a las 12 UTC al 04 a las 12 UTC
Viento 7 kt del sur
Visibilidad 10 km o más
sin nubes por debajo de 1500 m y sin presencia de cumulonimbus.
Evolucionando progresivamente
del 03 a las 17 UTC al 03 a las 20 UTC
Viento 10 kt del norte-noreste

TAF: LEAM 031100Z 0312/0412 18007KT CAVOK TX17/0315Z TN05/0406Z BECMG 0317/0320 02010KT

Observaciones y pronósticos meteorológicos de más de 4000 aeropuertos (mensajes METAR y TAF).

Los puntos amarillos y rojos representan las estaciones disponibles.

Ponga el ratón en el punto deseado para ver el nombre de la estación.

Haga clic para ver las observaciones y los pronósticos meteorológicos.

Para cambiar el mapa : haga clic en los botones verdes con una cruz de color negro para hacer un zoom, en el botón verde con un guión para alejar o en las flechas verdes para mapas adyacentes.


METAR-TAF: